createdAt,value
2023-05-14T00:00:04.381Z,101936.44
2023-05-14T00:00:20.204Z,101945.47
2023-05-14T00:00:54.037Z,101940.09
2023-05-14T00:01:15.267Z,101945.47
2023-05-14T00:01:28.312Z,101943.75
2023-05-14T00:01:42.074Z,101940.19
2023-05-14T00:01:55.733Z,101937.50
2023-05-14T00:02:08.364Z,101948.25
2023-05-14T00:02:21.097Z,101936.66
2023-05-14T00:02:33.762Z,101937.63
2023-05-14T00:02:46.498Z,101940.31
2023-05-14T00:02:59.315Z,101943.00
2023-05-14T00:03:12.166Z,101935.06
2023-05-14T00:03:25.502Z,101942.13
2023-05-14T00:03:39.914Z,101943.13
2023-05-14T00:03:52.541Z,101935.16
2023-05-14T00:04:06.748Z,101941.53
2023-05-14T00:04:19.722Z,101944.19
2023-05-14T00:04:32.420Z,101937.97
2023-05-14T00:04:45.131Z,101936.25
2023-05-14T00:04:57.632Z,101938.09
2023-05-14T00:05:10.392Z,101940.78
2023-05-14T00:05:23.216Z,101931.97
2023-05-14T00:05:35.781Z,101936.34
2023-05-14T00:05:49.533Z,101940.03
2023-05-14T00:06:02.016Z,101938.28
2023-05-14T00:06:15.137Z,101940.97
2023-05-14T00:06:27.697Z,101939.28
2023-05-14T00:06:40.250Z,101932.16
2023-05-14T00:06:52.778Z,101940.22
2023-05-14T00:07:06.033Z,101937.69
2023-05-14T00:07:18.583Z,101936.81
2023-05-14T00:07:32.090Z,101935.94
2023-05-14T00:07:44.557Z,101936.94
2023-05-14T00:07:57.124Z,101936.94
2023-05-14T00:08:09.957Z,101936.94
2023-05-14T00:08:22.486Z,101930.69
2023-05-14T00:08:35.028Z,101931.66
2023-05-14T00:08:47.559Z,101930.81
2023-05-14T00:09:01.089Z,101935.34
2023-05-14T00:09:13.704Z,101938.00
2023-05-14T00:09:26.445Z,101937.13
2023-05-14T00:09:39.018Z,101933.59
2023-05-14T00:09:51.536Z,101937.28
2023-05-14T00:10:04.487Z,101937.28
2023-05-14T00:10:19.084Z,101934.59
2023-05-14T00:10:31.753Z,101931.16
2023-05-14T00:10:44.322Z,101932.84
2023-05-14T00:10:58.070Z,101932.00
2023-05-14T00:11:10.739Z,101929.31
2023-05-14T00:11:23.279Z,101937.38
2023-05-14T00:11:35.792Z,101936.53
2023-05-14T00:11:48.332Z,101931.16
2023-05-14T00:12:01.167Z,101939.22
2023-05-14T00:12:13.847Z,101932.09
2023-05-14T00:12:26.652Z,101934.78
2023-05-14T00:12:40.195Z,101933.94
2023-05-14T00:12:52.721Z,101938.47
2023-05-14T00:13:05.411Z,101928.97
2023-05-14T00:13:17.940Z,101932.41
2023-05-14T00:13:30.582Z,101932.41
2023-05-14T00:13:43.119Z,101934.13
2023-05-14T00:13:55.702Z,101934.13
2023-05-14T00:14:08.230Z,101933.25
2023-05-14T00:14:21.993Z,101928.75
2023-05-14T00:14:34.523Z,101936.53
2023-05-14T00:14:47.038Z,101933.94
2023-05-14T00:14:59.593Z,101936.72
2023-05-14T00:15:12.692Z,101924.38
2023-05-14T00:15:25.242Z,101924.47
2023-05-14T00:15:38.108Z,101933.44
2023-05-14T00:15:51.692Z,101924.63
2023-05-14T00:16:07.728Z,101932.78
2023-05-14T00:16:20.336Z,101925.69
2023-05-14T00:16:33.083Z,101932.03
2023-05-14T00:16:45.865Z,101935.56
2023-05-14T00:16:59.571Z,101932.03
2023-05-14T00:17:12.086Z,101935.69
2023-05-14T00:17:24.695Z,101933.13
2023-05-14T00:17:39.046Z,101934.94
2023-05-14T00:17:51.641Z,101933.22
2023-05-14T00:18:04.298Z,101928.81
2023-05-14T00:18:17.162Z,101928.81
2023-05-14T00:18:29.720Z,101930.66
2023-05-14T00:18:42.276Z,101935.28
2023-05-14T00:18:54.872Z,101933.44
2023-05-14T00:19:08.416Z,101930.75
2023-05-14T00:19:21.002Z,101934.41
2023-05-14T00:19:33.549Z,101934.41
2023-05-14T00:19:46.186Z,101927.31
2023-05-14T00:19:59.527Z,101931.84
2023-05-14T00:20:12.719Z,101929.25
2023-05-14T00:20:25.469Z,101934.63
2023-05-14T00:20:38.230Z,101929.25
2023-05-14T00:20:54.947Z,101920.34
2023-05-14T00:21:07.702Z,101926.69
2023-05-14T00:21:20.808Z,101925.81
2023-05-14T00:21:33.623Z,101931.19
2023-05-14T00:21:46.939Z,101936.56
2023-05-14T00:21:59.773Z,101935.72
2023-05-14T00:22:12.310Z,101929.50
2023-05-14T00:22:24.779Z,101933.97
2023-05-14T00:22:37.343Z,101926.91
2023-05-14T00:22:50.824Z,101927.75
2023-05-14T00:23:03.355Z,101928.63
2023-05-14T00:23:15.824Z,101932.28
2023-05-14T00:23:28.400Z,101930.69
2023-05-14T00:23:40.939Z,101935.06
2023-05-14T00:23:53.476Z,101934.22
2023-05-14T00:24:06.413Z,101926.25
2023-05-14T00:24:19.920Z,101934.31
2023-05-14T00:24:32.487Z,101927.25
2023-05-14T00:24:45.081Z,101925.50
2023-05-14T00:24:57.717Z,101928.19
2023-05-14T00:25:10.727Z,101930.88
2023-05-14T00:25:23.590Z,101929.19
2023-05-14T00:25:36.734Z,101930.13
2023-05-14T00:25:49.628Z,101929.28
2023-05-14T00:26:03.167Z,101928.44
2023-05-14T00:26:16.168Z,101923.06
2023-05-14T00:26:28.878Z,101932.06
2023-05-14T00:26:41.415Z,101924.91
2023-05-14T00:26:53.933Z,101933.81
2023-05-14T00:27:07.153Z,101924.91
2023-05-14T00:27:19.664Z,101927.69
2023-05-14T00:27:32.304Z,101927.56
2023-05-14T00:27:45.802Z,101925.00
2023-05-14T00:27:58.411Z,101922.31
2023-05-14T00:28:10.934Z,101927.69
2023-05-14T00:28:23.424Z,101927.69
2023-05-14T00:28:36.109Z,101928.63
2023-05-14T00:28:49.130Z,101926.94
2023-05-14T00:29:02.630Z,101928.63
2023-05-14T00:29:15.146Z,101920.72
2023-05-14T00:29:27.997Z,101923.41
2023-05-14T00:29:40.503Z,101925.19
2023-05-14T00:29:52.964Z,101925.19
2023-05-14T00:30:06.916Z,101923.50
2023-05-14T00:30:20.602Z,101923.50
2023-05-14T00:30:33.162Z,101926.19
2023-05-14T00:30:45.656Z,101928.88
2023-05-14T00:30:58.274Z,101921.75
2023-05-14T00:31:12.252Z,101922.75
2023-05-14T00:31:25.380Z,101921.75
2023-05-14T00:31:37.973Z,101928.09
2023-05-14T00:31:51.556Z,101920.91
2023-05-14T00:32:04.477Z,101929.09
2023-05-14T00:32:17.081Z,101923.72
2023-05-14T00:32:29.636Z,101913.94
2023-05-14T00:32:42.225Z,101918.47
2023-05-14T00:32:54.846Z,101920.28
2023-05-14T00:33:07.852Z,101918.56
2023-05-14T00:33:20.420Z,101915.88
2023-05-14T00:33:33.976Z,101920.38
2023-05-14T00:33:46.529Z,101924.78
2023-05-14T00:33:59.075Z,101916.84
2023-05-14T00:34:11.613Z,101917.81
2023-05-14T00:34:24.686Z,101923.16
2023-05-14T00:34:37.201Z,101918.78
2023-05-14T00:34:49.695Z,101925.00
2023-05-14T00:35:03.223Z,101923.28
2023-05-14T00:35:16.757Z,101918.88
2023-05-14T00:35:29.317Z,101918.03
2023-05-14T00:35:41.827Z,101920.72
2023-05-14T00:35:54.328Z,101921.66
2023-05-14T00:36:07.659Z,101925.25
2023-05-14T00:36:20.320Z,101917.25
2023-05-14T00:36:32.845Z,101922.63
2023-05-14T00:36:46.603Z,101920.88
2023-05-14T00:36:59.103Z,101920.03
2023-05-14T00:37:11.632Z,101916.50
2023-05-14T00:37:24.354Z,101919.19
2023-05-14T00:37:37.319Z,101917.44
2023-05-14T00:37:49.851Z,101928.19
2023-05-14T00:38:02.576Z,101924.56
2023-05-14T00:38:19.331Z,101923.78
2023-05-14T00:38:32.099Z,101919.38
2023-05-14T00:38:44.623Z,101922.06
2023-05-14T00:38:57.114Z,101924.75
2023-05-14T00:39:09.907Z,101927.34
2023-05-14T00:39:23.387Z,101916.69
2023-05-14T00:39:35.999Z,101917.69
2023-05-14T00:39:48.542Z,101919.38
2023-05-14T00:40:01.071Z,101920.38
2023-05-14T00:40:13.816Z,101915.84
2023-05-14T00:40:27.698Z,101917.69
2023-05-14T00:40:44.050Z,101921.34
2023-05-14T00:40:57.598Z,101919.59
2023-05-14T00:41:10.242Z,101920.59
2023-05-14T00:41:22.975Z,101920.59
2023-05-14T00:41:35.738Z,101910.81
2023-05-14T00:41:48.251Z,101922.53
2023-05-14T00:42:00.852Z,101919.84
2023-05-14T00:42:13.404Z,101924.44
2023-05-14T00:42:27.212Z,101918.19
2023-05-14T00:42:40.047Z,101922.72
2023-05-14T00:42:53.077Z,101918.34
2023-05-14T00:43:05.569Z,101923.69
2023-05-14T00:43:18.562Z,101929.06
2023-05-14T00:43:33.155Z,101922.84
2023-05-14T00:43:46.703Z,101919.28
2023-05-14T00:43:59.521Z,101924.66
2023-05-14T00:44:12.055Z,101919.28
2023-05-14T00:44:24.561Z,101928.31
2023-05-14T00:44:37.038Z,101918.53
2023-05-14T00:44:49.568Z,101923.91
2023-05-14T00:45:02.097Z,101919.50
2023-05-14T00:45:15.886Z,101921.22
2023-05-14T00:45:28.558Z,101922.19
2023-05-14T00:45:41.113Z,101929.41
2023-05-14T00:45:54.693Z,101918.75
2023-05-14T00:46:08.134Z,101926.81
2023-05-14T00:46:22.077Z,101923.38
2023-05-14T00:46:34.672Z,101921.53
2023-05-14T00:46:48.679Z,101919.84
2023-05-14T00:47:01.720Z,101926.16
2023-05-14T00:47:14.703Z,101927.97
2023-05-14T00:47:27.783Z,101917.34
2023-05-14T00:47:40.943Z,101924.53
2023-05-14T00:47:54.710Z,101929.06
2023-05-14T00:48:07.393Z,101927.44
2023-05-14T00:48:21.280Z,101924.78
2023-05-14T00:48:35.176Z,101923.88
2023-05-14T00:48:47.698Z,101924.88
2023-05-14T00:49:00.530Z,101923.16
2023-05-14T00:49:13.509Z,101924.13
2023-05-14T00:49:26.785Z,101917.03
2023-05-14T00:49:40.945Z,101928.63
2023-05-14T00:49:54.586Z,101934.94
2023-05-14T00:50:08.536Z,101931.31
2023-05-14T00:50:21.608Z,101927.88
2023-05-14T00:50:34.659Z,101931.41
2023-05-14T00:50:48.437Z,101924.34
2023-05-14T00:51:01.402Z,101923.44
2023-05-14T00:51:13.999Z,101928.81
2023-05-14T00:51:27.871Z,101927.97
2023-05-14T00:51:41.485Z,101918.22
2023-05-14T00:51:54.010Z,101925.38
2023-05-14T00:52:07.161Z,101923.69
2023-05-14T00:52:20.482Z,101929.03
2023-05-14T00:52:33.406Z,101922.81
2023-05-14T00:52:46.985Z,101928.19
2023-05-14T00:52:59.598Z,101927.34
2023-05-14T00:53:13.440Z,101925.59
2023-05-14T00:53:26.661Z,101922.94
2023-05-14T00:53:39.783Z,101923.91
2023-05-14T00:53:53.298Z,101930.13
2023-05-14T00:54:06.407Z,101928.38
2023-05-14T00:54:19.930Z,101924.84
2023-05-14T00:54:34.128Z,101930.22
2023-05-14T00:54:48.198Z,101924.84
2023-05-14T00:55:04.240Z,101924.94
2023-05-14T00:55:17.171Z,101921.41
2023-05-14T00:55:30.896Z,101924.09
2023-05-14T00:55:43.714Z,101924.09
2023-05-14T00:55:56.684Z,101932.16
2023-05-14T00:56:09.536Z,101920.47
2023-05-14T00:56:23.765Z,101926.78
2023-05-14T00:56:36.456Z,101925.94
2023-05-14T00:56:49.331Z,101930.31
2023-05-14T00:57:02.374Z,101920.47
2023-05-14T00:57:14.977Z,101925.84
2023-05-14T00:57:27.540Z,101929.38
2023-05-14T00:57:40.718Z,101922.25
2023-05-14T00:57:54.779Z,101924.94
2023-05-14T00:58:10.815Z,101930.31
2023-05-14T00:58:24.523Z,101928.59
2023-05-14T00:58:38.043Z,101927.75
2023-05-14T00:58:50.818Z,101918.81
2023-05-14T00:59:03.338Z,101925.16
2023-05-14T00:59:15.837Z,101926.03
2023-05-14T00:59:28.390Z,101923.34
2023-05-14T00:59:42.532Z,101924.31
2023-05-14T00:59:55.519Z,101924.31
2023-05-14T01:00:09.662Z,101925.16
2023-05-14T01:00:23.564Z,101924.31
2023-05-14T01:00:36.823Z,101927.00
2023-05-14T01:00:49.474Z,101924.31
2023-05-14T01:01:02.262Z,101926.16
2023-05-14T01:01:15.367Z,101922.59
2023-05-14T01:01:31.245Z,101922.59
2023-05-14T01:01:43.826Z,101920.88
2023-05-14T01:01:56.765Z,101918.19
2023-05-14T01:02:09.369Z,101924.50
2023-05-14T01:02:22.058Z,101920.03
2023-05-14T01:02:35.038Z,101919.16
2023-05-14T01:02:47.730Z,101917.44
2023-05-14T01:03:01.892Z,101917.44
2023-05-14T01:03:14.651Z,101919.38
2023-05-14T01:03:30.448Z,101923.75
2023-05-14T01:03:43.403Z,101919.38
2023-05-14T01:03:58.051Z,101920.31
2023-05-14T01:04:12.311Z,101917.63
2023-05-14T01:04:25.225Z,101915.84
2023-05-14T01:04:39.094Z,101920.31
2023-05-14T01:04:52.218Z,101917.63
2023-05-14T01:05:05.528Z,101921.19
2023-05-14T01:05:18.327Z,101912.41
2023-05-14T01:05:40.525Z,101914.94
2023-05-14T01:06:12.444Z,101914.09
2023-05-14T01:06:34.457Z,101916.91
2023-05-14T01:06:55.381Z,101911.56
2023-05-14T01:07:14.060Z,101914.22
2023-05-14T01:07:33.693Z,101909.81
2023-05-14T01:07:56.352Z,101918.72
2023-05-14T01:08:17.240Z,101917.84
2023-05-14T01:08:36.708Z,101915.19
2023-05-14T01:09:01.532Z,101915.28
2023-05-14T01:09:23.724Z,101917.09
2023-05-14T01:09:43.180Z,101913.56
2023-05-14T01:10:01.536Z,101922.56
2023-05-14T01:10:21.613Z,101919.03
2023-05-14T01:10:50.923Z,101923.53
2023-05-14T01:11:08.167Z,101922.78
2023-05-14T01:11:26.141Z,101920.00
2023-05-14T01:11:51.039Z,101923.63
2023-05-14T01:12:10.234Z,101919.13
2023-05-14T01:12:34.595Z,101921.94
2023-05-14T01:12:53.447Z,101919.34
2023-05-14T01:13:13.670Z,101915.81
2023-05-14T01:13:33.927Z,101915.81
2023-05-14T01:13:55.562Z,101921.28
2023-05-14T01:14:19.144Z,101923.94
2023-05-14T01:14:39.738Z,101919.56
2023-05-14T01:15:02.187Z,101926.72
2023-05-14T01:15:20.050Z,101920.50
2023-05-14T01:15:35.112Z,101922.34
2023-05-14T01:15:49.680Z,101922.34
2023-05-14T01:16:04.243Z,101921.50
2023-05-14T01:16:18.945Z,101923.28
2023-05-14T01:16:34.531Z,101921.59
2023-05-14T01:16:50.887Z,101923.41
2023-05-14T01:17:06.161Z,101925.25
2023-05-14T01:17:20.685Z,101927.03
2023-05-14T01:17:38.022Z,101926.19
2023-05-14T01:17:54.321Z,101922.75
2023-05-14T01:18:09.565Z,101922.75
2023-05-14T01:18:23.553Z,101919.22
2023-05-14T01:18:36.767Z,101922.75
2023-05-14T01:18:52.122Z,101923.72
2023-05-14T01:19:06.205Z,101931.78
2023-05-14T01:19:26.979Z,101924.66
2023-05-14T01:19:41.284Z,101920.16
2023-05-14T01:19:55.604Z,101922.84
2023-05-14T01:20:09.296Z,101922.00
2023-05-14T01:20:22.264Z,101919.31
2023-05-14T01:20:36.492Z,101919.31
2023-05-14T01:20:51.500Z,101925.66
2023-05-14T01:21:04.350Z,101922.97
2023-05-14T01:21:37.298Z,101916.72
2023-05-14T01:21:49.788Z,101918.47
2023-05-14T01:22:02.316Z,101917.59
2023-05-14T01:22:16.346Z,101914.94
2023-05-14T01:22:28.994Z,101917.59
2023-05-14T01:22:41.576Z,101918.56
2023-05-14T01:22:54.119Z,101915.88
2023-05-14T01:23:06.794Z,101914.94
2023-05-14T01:23:19.298Z,101925.75
2023-05-14T01:23:31.769Z,101919.53
2023-05-14T01:23:45.304Z,101915.03
2023-05-14T01:23:57.833Z,101920.38
2023-05-14T01:24:10.538Z,101919.53
2023-05-14T01:24:23.002Z,101916.84
2023-05-14T01:24:36.212Z,101918.69
2023-05-14T01:24:48.776Z,101912.44
2023-05-14T01:25:02.334Z,101912.56
2023-05-14T01:25:15.052Z,101915.25
2023-05-14T01:25:27.984Z,101914.34
2023-05-14T01:25:41.407Z,101925.06
2023-05-14T01:25:54.231Z,101917.16
2023-05-14T01:26:06.857Z,101909.22
2023-05-14T01:26:20.900Z,101922.63
2023-05-14T01:26:34.727Z,101910.16
2023-05-14T01:26:47.323Z,101917.34
2023-05-14T01:27:07.445Z,101921.84
2023-05-14T01:27:27.180Z,101921.94
2023-05-14T01:27:47.548Z,101917.56
2023-05-14T01:28:06.563Z,101913.16
2023-05-14T01:28:21.458Z,101922.06
2023-05-14T01:28:37.635Z,101920.34
2023-05-14T01:28:52.951Z,101932.03
2023-05-14T01:29:14.206Z,101918.63
2023-05-14T01:29:29.184Z,101925.91
2023-05-14T01:29:45.564Z,101919.66
2023-05-14T01:30:08.086Z,101924.19
2023-05-14T01:30:26.105Z,101919.78
2023-05-14T01:30:43.625Z,101927.94
2023-05-14T01:31:02.447Z,101922.56
2023-05-14T01:31:18.871Z,101914.63
2023-05-14T01:31:34.546Z,101919.97
2023-05-14T01:31:50.029Z,101925.34
2023-05-14T01:32:07.899Z,101919.22
2023-05-14T01:32:24.555Z,101923.72
2023-05-14T01:32:39.545Z,101922.03
2023-05-14T01:32:55.586Z,101916.66
2023-05-14T01:33:12.164Z,101918.47
2023-05-14T01:33:27.546Z,101916.75
2023-05-14T01:33:43.712Z,101926.50
2023-05-14T01:33:59.357Z,101920.41
2023-05-14T01:34:13.117Z,101922.22
2023-05-14T01:34:28.449Z,101921.34
2023-05-14T01:34:41.921Z,101914.28
2023-05-14T01:34:58.456Z,101917.91
2023-05-14T01:35:12.829Z,101918.78
2023-05-14T01:35:27.093Z,101921.44
2023-05-14T01:35:40.492Z,101924.13
2023-05-14T01:35:54.196Z,101914.47
2023-05-14T01:36:07.068Z,101913.53
2023-05-14T01:36:19.678Z,101919.84
2023-05-14T01:36:34.649Z,101911.81
2023-05-14T01:36:49.280Z,101913.63
2023-05-14T01:37:02.802Z,101916.41
2023-05-14T01:37:16.356Z,101914.56
2023-05-14T01:37:31.217Z,101915.53
2023-05-14T01:37:45.126Z,101918.31
2023-05-14T01:38:01.211Z,101919.19
2023-05-14T01:38:18.049Z,101914.69
2023-05-14T01:38:33.992Z,101916.53
2023-05-14T01:38:48.689Z,101915.63
2023-05-14T01:39:02.440Z,101915.75
2023-05-14T01:39:15.381Z,101911.25
2023-05-14T01:39:28.082Z,101911.25
2023-05-14T01:39:42.164Z,101912.97
2023-05-14T01:39:56.554Z,101915.63
2023-05-14T01:40:11.138Z,101917.47
2023-05-14T01:40:24.199Z,101910.41
2023-05-14T01:40:37.417Z,101912.19
2023-05-14T01:40:51.083Z,101913.94
2023-05-14T01:41:05.370Z,101914.88
2023-05-14T01:41:19.302Z,101914.03
2023-05-14T01:41:32.942Z,101914.88
2023-05-14T01:41:47.513Z,101914.03
2023-05-14T01:42:01.464Z,101913.19
2023-05-14T01:42:14.431Z,101919.38
2023-05-14T01:42:28.050Z,101908.66
2023-05-14T01:42:41.341Z,101919.38
2023-05-14T01:42:54.897Z,101915.84
2023-05-14T01:43:07.799Z,101913.19
2023-05-14T01:43:21.392Z,101914.03
2023-05-14T01:43:35.612Z,101913.19
2023-05-14T01:43:49.395Z,101915.84
2023-05-14T01:44:02.106Z,101911.44
2023-05-14T01:44:14.871Z,101918.63
2023-05-14T01:44:27.479Z,101916.78
2023-05-14T01:44:40.405Z,101913.34
2023-05-14T01:44:53.536Z,101918.72
2023-05-14T01:45:06.758Z,101912.50
2023-05-14T01:45:21.485Z,101912.63
2023-05-14T01:45:36.319Z,101915.31
2023-05-14T01:45:48.937Z,101915.31
2023-05-14T01:46:01.553Z,101913.56
2023-05-14T01:46:14.129Z,101911.88
2023-05-14T01:46:26.834Z,101911.88
2023-05-14T01:46:39.494Z,101912.72
2023-05-14T01:46:53.060Z,101913.56
2023-05-14T01:47:05.888Z,101916.25
2023-05-14T01:47:18.363Z,101912.72
2023-05-14T01:47:31.006Z,101911.88
2023-05-14T01:47:43.707Z,101910.97
2023-05-14T01:47:56.590Z,101908.44
2023-05-14T01:48:10.203Z,101914.63
2023-05-14T01:48:22.858Z,101912.91
2023-05-14T01:48:35.681Z,101911.19
2023-05-14T01:48:48.154Z,101915.69
2023-05-14T01:49:01.172Z,101908.59
2023-05-14T01:49:13.720Z,101908.59
2023-05-14T01:49:26.203Z,101913.97
2023-05-14T01:49:38.680Z,101907.75
2023-05-14T01:49:52.471Z,101916.63
2023-05-14T01:50:06.127Z,101914.81
2023-05-14T01:50:18.894Z,101911.28
2023-05-14T01:50:31.407Z,101913.13
2023-05-14T01:50:43.958Z,101906.91
2023-05-14T01:50:56.485Z,101912.25
2023-05-14T01:51:09.099Z,101918.47
2023-05-14T01:51:21.613Z,101907.84
2023-05-14T01:51:36.711Z,101909.66
2023-05-14T01:51:49.291Z,101913.31
2023-05-14T01:52:01.842Z,101916.00
2023-05-14T01:52:14.403Z,101916.94
2023-05-14T01:52:27.468Z,101905.38
2023-05-14T01:52:40.036Z,101921.44
2023-05-14T01:52:56.305Z,101909.88
2023-05-14T01:53:09.813Z,101915.25
2023-05-14T01:53:22.328Z,101908.16
2023-05-14T01:53:34.934Z,101918.00
2023-05-14T01:53:47.492Z,101910.91
2023-05-14T01:54:00.155Z,101910.91
2023-05-14T01:54:12.685Z,101912.66
2023-05-14T01:54:25.245Z,101908.25
2023-05-14T01:54:37.769Z,101915.41
2023-05-14T01:54:51.396Z,101914.56
2023-05-14T01:55:05.208Z,101915.41
2023-05-14T01:55:18.383Z,101912.75
2023-05-14T01:55:31.009Z,101912.75
2023-05-14T01:55:43.496Z,101908.25
2023-05-14T01:55:56.044Z,101913.72
2023-05-14T01:56:08.810Z,101903.00
2023-05-14T01:56:23.510Z,101901.19
2023-05-14T01:56:36.091Z,101910.06
2023-05-14T01:56:48.562Z,101909.22
2023-05-14T01:57:01.091Z,101911.88
2023-05-14T01:57:13.653Z,101908.34
2023-05-14T01:57:26.218Z,101910.06
2023-05-14T01:57:39.718Z,101910.19
2023-05-14T01:57:52.513Z,101919.06
2023-05-14T01:58:05.018Z,101908.44
2023-05-14T01:58:17.504Z,101911.13
2023-05-14T01:58:29.985Z,101899.47
2023-05-14T01:58:42.531Z,101911.13
2023-05-14T01:58:56.733Z,101908.53
2023-05-14T01:59:10.287Z,101906.84
2023-05-14T01:59:22.963Z,101903.31
2023-05-14T01:59:35.653Z,101905.22
2023-05-14T01:59:48.167Z,101907.00
2023-05-14T02:00:01.040Z,101907.91
2023-05-14T02:00:14.112Z,101911.53
2023-05-14T02:00:27.148Z,101908.06
2023-05-14T02:00:40.687Z,101902.84
2023-05-14T02:00:53.184Z,101901.88
2023-05-14T02:01:07.484Z,101904.63
2023-05-14T02:01:20.238Z,101910.00
2023-05-14T02:01:33.971Z,101901.19
2023-05-14T02:01:46.762Z,101901.19
2023-05-14T02:01:59.364Z,101902.06
2023-05-14T02:02:12.036Z,101895.84
2023-05-14T02:02:25.974Z,101903.03
2023-05-14T02:02:38.578Z,101905.69
2023-05-14T02:02:51.169Z,101902.94
2023-05-14T02:03:03.845Z,101906.56
2023-05-14T02:03:16.461Z,101896.81
2023-05-14T02:03:29.001Z,101905.69
2023-05-14T02:03:41.820Z,101899.41
2023-05-14T02:03:54.436Z,101901.19
2023-05-14T02:04:08.056Z,101898.53
2023-05-14T02:04:20.979Z,101895.00
2023-05-14T02:04:33.501Z,101898.53
2023-05-14T02:04:46.314Z,101901.19
2023-05-14T02:04:58.816Z,101896.72
2023-05-14T02:05:11.757Z,101895.84
2023-05-14T02:05:24.352Z,101902.94
2023-05-14T02:05:36.927Z,101894.06
2023-05-14T02:05:49.682Z,101901.19
2023-05-14T02:06:03.212Z,101900.34
2023-05-14T02:06:15.848Z,101896.81
2023-05-14T02:06:28.392Z,101899.50
2023-05-14T02:06:42.298Z,101901.19
2023-05-14T02:06:54.821Z,101898.53
2023-05-14T02:07:07.346Z,101894.13
2023-05-14T02:07:20.121Z,101894.13
2023-05-14T02:07:33.711Z,101898.63
2023-05-14T02:07:46.201Z,101897.75
2023-05-14T02:07:58.814Z,101898.72
2023-05-14T02:08:11.513Z,101890.69
2023-05-14T02:08:24.079Z,101896.13
2023-05-14T02:08:36.564Z,101895.28
2023-05-14T02:08:49.103Z,101897.13
2023-05-14T02:09:01.641Z,101894.53
2023-05-14T02:09:14.225Z,101891.84
2023-05-14T02:09:27.679Z,101894.53
2023-05-14T02:09:40.281Z,101899.97
2023-05-14T02:09:52.776Z,101896.44
2023-05-14T02:10:06.409Z,101894.72
2023-05-14T02:10:19.215Z,101894.81
2023-05-14T02:10:31.689Z,101896.66
2023-05-14T02:10:45.195Z,101893.97
2023-05-14T02:10:57.994Z,101889.47
2023-05-14T02:11:10.534Z,101895.78
2023-05-14T02:11:23.064Z,101891.28
2023-05-14T02:11:35.647Z,101888.63
2023-05-14T02:11:48.171Z,101894.91
2023-05-14T02:12:01.666Z,101894.91
2023-05-14T02:12:14.196Z,101893.13
2023-05-14T02:12:26.768Z,101894.91
2023-05-14T02:12:39.423Z,101888.72
2023-05-14T02:12:51.901Z,101893.22
2023-05-14T02:13:04.423Z,101895.88
2023-05-14T02:13:17.071Z,101893.22
2023-05-14T02:13:29.592Z,101899.50
2023-05-14T02:13:43.141Z,101895.88
2023-05-14T02:13:55.742Z,101889.69
2023-05-14T02:14:08.261Z,101899.50
2023-05-14T02:14:20.842Z,101891.47
2023-05-14T02:14:33.630Z,101894.28
2023-05-14T02:14:46.126Z,101899.63
2023-05-14T02:14:59.615Z,101894.28
2023-05-14T02:15:12.754Z,101890.72
2023-05-14T02:15:25.417Z,101893.38
2023-05-14T02:15:38.720Z,101894.34
2023-05-14T02:15:51.368Z,101892.63
2023-05-14T02:16:04.507Z,101897.13
2023-05-14T02:16:17.132Z,101889.09
2023-05-14T02:16:30.770Z,101893.59
2023-05-14T02:16:43.325Z,101886.53
2023-05-14T02:16:56.339Z,101885.66
2023-05-14T02:17:09.108Z,101889.22
2023-05-14T02:17:22.162Z,101884.81
2023-05-14T02:17:34.707Z,101889.31
2023-05-14T02:17:47.335Z,101885.78
2023-05-14T02:18:00.857Z,101889.31
2023-05-14T02:18:13.709Z,101892.91
2023-05-14T02:18:26.220Z,101892.91
2023-05-14T02:18:38.837Z,101886.72
2023-05-14T02:18:51.492Z,101889.38
2023-05-14T02:19:04.181Z,101880.50
2023-05-14T02:19:16.781Z,101891.22
2023-05-14T02:19:29.397Z,101888.63
2023-05-14T02:19:42.857Z,101888.63
2023-05-14T02:19:55.381Z,101885.94
2023-05-14T02:20:10.336Z,101887.78
2023-05-14T02:20:23.058Z,101886.03
2023-05-14T02:20:35.715Z,101888.81
2023-05-14T02:20:48.276Z,101883.44
2023-05-14T02:21:00.842Z,101889.66
2023-05-14T02:21:14.350Z,101888.81
2023-05-14T02:21:26.991Z,101888.81
2023-05-14T02:21:39.571Z,101891.47
2023-05-14T02:21:53.688Z,101888.81
2023-05-14T02:22:06.230Z,101888.81
2023-05-14T02:22:18.762Z,101886.13
2023-05-14T02:22:31.329Z,101887.06
2023-05-14T02:22:46.030Z,101889.75
2023-05-14T02:22:59.631Z,101893.31
2023-05-14T02:23:12.127Z,101889.75
2023-05-14T02:23:34.164Z,101897.75
2023-05-14T02:23:51.205Z,101898.75
2023-05-14T02:24:03.943Z,101895.22
2023-05-14T02:24:16.512Z,101894.31
2023-05-14T02:24:30.003Z,101899.69
2023-05-14T02:24:42.623Z,101894.31
2023-05-14T02:24:55.189Z,101893.47
2023-05-14T02:25:09.010Z,101896.16
2023-05-14T02:25:21.532Z,101890.88
2023-05-14T02:25:34.312Z,101898.06
2023-05-14T02:25:46.825Z,101896.25
2023-05-14T02:25:59.338Z,101893.69
2023-05-14T02:26:12.915Z,101898.16
2023-05-14T02:26:25.751Z,101903.50
2023-05-14T02:26:38.301Z,101888.41
2023-05-14T02:26:50.888Z,101896.44
2023-05-14T02:27:03.805Z,101895.59
2023-05-14T02:27:16.363Z,101894.75
2023-05-14T02:27:28.931Z,101895.69
2023-05-14T02:27:42.398Z,101897.41
2023-05-14T02:27:55.397Z,101895.69
2023-05-14T02:28:07.892Z,101898.75
2023-05-14T02:28:20.433Z,101899.50
2023-05-14T02:28:32.928Z,101899.50
2023-05-14T02:28:45.729Z,101899.50
2023-05-14T02:28:58.301Z,101895.00
2023-05-14T02:29:12.387Z,101888.81
2023-05-14T02:29:25.292Z,101893.19
2023-05-14T02:29:37.784Z,101890.50
2023-05-14T02:29:50.411Z,101893.19
2023-05-14T02:30:03.068Z,101894.06
2023-05-14T02:30:15.805Z,101901.22
2023-05-14T02:30:30.026Z,101900.34
2023-05-14T02:30:42.532Z,101901.22
2023-05-14T02:30:59.937Z,101895.00
2023-05-14T02:31:12.554Z,101904.00
2023-05-14T02:31:25.160Z,101894.16
2023-05-14T02:31:37.845Z,101899.50
2023-05-14T02:31:50.591Z,101893.31
2023-05-14T02:32:04.252Z,101903.13
2023-05-14T02:32:16.803Z,101901.41
2023-05-14T02:32:29.459Z,101903.13
2023-05-14T02:32:42.129Z,101895.22
2023-05-14T02:32:54.756Z,101899.69
2023-05-14T02:33:07.730Z,101897.97
2023-05-14T02:33:20.469Z,101897.97
2023-05-14T02:33:33.302Z,101897.13
2023-05-14T02:33:46.838Z,101896.25
2023-05-14T02:34:01.238Z,101901.59
2023-05-14T02:34:13.780Z,101901.59
2023-05-14T02:34:26.353Z,101899.88
2023-05-14T02:34:38.902Z,101899.03
2023-05-14T02:34:51.492Z,101902.56
2023-05-14T02:35:04.388Z,101902.56
2023-05-14T02:35:18.117Z,101896.34
2023-05-14T02:35:30.746Z,101898.25
2023-05-14T02:35:43.344Z,101899.13
2023-05-14T02:35:55.946Z,101896.44
2023-05-14T02:36:08.762Z,101891.94
2023-05-14T02:36:21.387Z,101897.41
2023-05-14T02:36:33.995Z,101895.47